createdAt,value
2023-02-19T00:00:45.835Z,599.00
2023-02-19T00:01:45.844Z,597.00
2023-02-19T00:02:45.832Z,597.00
2023-02-19T00:03:45.878Z,598.00
2023-02-19T00:04:45.851Z,599.00
2023-02-19T00:05:45.801Z,598.00
2023-02-19T00:06:45.774Z,596.00
2023-02-19T00:07:45.788Z,598.00
2023-02-19T00:08:45.745Z,598.00
2023-02-19T00:09:45.737Z,596.00
2023-02-19T00:10:45.733Z,594.00
2023-02-19T00:11:45.719Z,595.00
2023-02-19T00:12:45.713Z,600.00
2023-02-19T00:13:45.707Z,598.00
2023-02-19T00:14:45.692Z,597.00
2023-02-19T00:15:45.688Z,596.00
2023-02-19T00:16:45.671Z,593.00
2023-02-19T00:17:45.662Z,595.00
2023-02-19T00:18:45.650Z,597.00
2023-02-19T00:19:45.642Z,597.00
2023-02-19T00:20:45.633Z,601.00
2023-02-19T00:21:45.625Z,598.00
2023-02-19T00:22:45.611Z,596.00
2023-02-19T00:23:45.602Z,593.00
2023-02-19T00:24:47.320Z,597.00
2023-02-19T00:25:45.602Z,600.00
2023-02-19T00:26:45.612Z,584.00
2023-02-19T00:27:45.583Z,575.00
2023-02-19T00:28:45.579Z,586.00
2023-02-19T00:29:45.592Z,590.00
2023-02-19T00:30:45.586Z,599.00
2023-02-19T00:31:45.729Z,591.00
2023-02-19T00:32:45.559Z,576.00
2023-02-19T00:33:45.639Z,577.00
2023-02-19T00:34:45.552Z,583.00
2023-02-19T00:35:45.548Z,589.00
2023-02-19T00:36:45.539Z,594.00
2023-02-19T00:37:45.521Z,581.00
2023-02-19T00:38:45.520Z,568.00
2023-02-19T00:39:45.516Z,573.00
2023-02-19T00:40:45.516Z,578.00
2023-02-19T00:41:45.522Z,581.00
2023-02-19T00:42:45.506Z,580.00
2023-02-19T00:43:45.515Z,564.00
2023-02-19T00:44:45.498Z,569.00
2023-02-19T00:45:45.503Z,572.00
2023-02-19T00:46:45.497Z,577.00
2023-02-19T00:47:45.499Z,584.00
2023-02-19T00:48:45.497Z,573.00
2023-02-19T00:49:45.514Z,562.00
2023-02-19T00:50:45.479Z,566.00
2023-02-19T00:51:45.492Z,568.00
2023-02-19T00:52:45.470Z,579.00
2023-02-19T00:53:45.486Z,557.00
2023-02-19T00:54:45.483Z,550.00
2023-02-19T00:55:45.471Z,549.00
2023-02-19T00:56:45.478Z,557.00
2023-02-19T00:57:45.459Z,565.00
2023-02-19T00:58:45.457Z,573.00
2023-02-19T00:59:45.462Z,562.00
2023-02-19T01:00:45.461Z,549.00
2023-02-19T01:01:45.558Z,552.00
2023-02-19T01:02:45.454Z,562.00
2023-02-19T01:03:45.459Z,567.00
2023-02-19T01:04:45.523Z,567.00
2023-02-19T01:05:45.442Z,550.00
2023-02-19T01:06:45.429Z,539.00
2023-02-19T01:07:45.437Z,543.00
2023-02-19T01:08:45.440Z,552.00
2023-02-19T01:09:45.438Z,561.00
2023-02-19T01:10:45.437Z,558.00
2023-02-19T01:11:45.462Z,537.00
2023-02-19T01:12:45.434Z,538.00
2023-02-19T01:13:45.440Z,539.00
2023-02-19T01:14:45.434Z,541.00
2023-02-19T01:15:45.449Z,545.00
2023-02-19T01:16:45.445Z,542.00
2023-02-19T01:17:45.453Z,538.00
2023-02-19T01:18:45.452Z,539.00
2023-02-19T01:19:45.445Z,549.00
2023-02-19T01:20:45.453Z,554.00
2023-02-19T01:21:45.436Z,538.00
2023-02-19T01:22:45.443Z,529.00
2023-02-19T01:23:45.434Z,532.00
2023-02-19T01:24:45.439Z,541.00
2023-02-19T01:25:45.425Z,548.00
2023-02-19T01:26:45.414Z,550.00
2023-02-19T01:27:45.420Z,534.00
2023-02-19T01:28:45.428Z,523.00
2023-02-19T01:29:45.421Z,536.00
2023-02-19T01:30:45.403Z,541.00
2023-02-19T01:31:45.540Z,545.00
2023-02-19T01:32:45.402Z,542.00
2023-02-19T01:33:45.396Z,527.00
2023-02-19T01:34:45.393Z,522.00
2023-02-19T01:35:45.387Z,528.00
2023-02-19T01:36:45.384Z,529.00
2023-02-19T01:37:45.391Z,539.00
2023-02-19T01:38:45.388Z,530.00
2023-02-19T01:39:45.380Z,518.00
2023-02-19T01:40:45.372Z,517.00
2023-02-19T01:41:45.371Z,521.00
2023-02-19T01:42:45.365Z,533.00
2023-02-19T01:43:45.354Z,537.00
2023-02-19T01:44:45.358Z,523.00
2023-02-19T01:45:45.347Z,518.00
2023-02-19T01:46:45.390Z,522.00
2023-02-19T01:47:45.355Z,530.00
2023-02-19T01:48:45.343Z,537.00
2023-02-19T01:49:45.347Z,523.00
2023-02-19T01:50:45.353Z,513.00
2023-02-19T01:51:45.351Z,514.00
2023-02-19T01:52:45.357Z,517.00
2023-02-19T01:53:45.353Z,525.00
2023-02-19T01:54:45.340Z,535.00
2023-02-19T01:55:45.341Z,523.00
2023-02-19T01:56:45.336Z,515.00
2023-02-19T01:57:45.337Z,513.00
2023-02-19T01:58:45.331Z,527.00
2023-02-19T01:59:45.328Z,527.00
2023-02-19T02:00:45.352Z,526.00
2023-02-19T02:01:45.363Z,515.00
2023-02-19T02:02:45.326Z,505.00
2023-02-19T02:03:45.322Z,503.00
2023-02-19T02:04:45.312Z,527.00
2023-02-19T02:05:45.309Z,531.00
2023-02-19T02:06:45.318Z,514.00
2023-02-19T02:07:45.316Z,502.00
2023-02-19T02:08:45.310Z,504.00
2023-02-19T02:09:45.311Z,514.00
2023-02-19T02:10:45.295Z,523.00
2023-02-19T02:11:45.303Z,525.00
2023-02-19T02:12:45.296Z,511.00
2023-02-19T02:13:45.286Z,501.00
2023-02-19T02:14:45.290Z,510.00
2023-02-19T02:15:45.270Z,516.00
2023-02-19T02:16:45.274Z,522.00
2023-02-19T02:17:45.276Z,520.00
2023-02-19T02:18:45.260Z,509.00
2023-02-19T02:19:45.260Z,504.00
2023-02-19T02:20:45.259Z,507.00
2023-02-19T02:21:45.278Z,512.00
2023-02-19T02:22:45.265Z,522.00
2023-02-19T02:23:45.265Z,512.00
2023-02-19T02:24:45.268Z,501.00
2023-02-19T02:25:45.257Z,508.00
2023-02-19T02:26:45.258Z,524.00
2023-02-19T02:27:45.256Z,525.00
2023-02-19T02:28:45.274Z,526.00
2023-02-19T02:29:45.263Z,505.00
2023-02-19T02:30:45.278Z,510.00
2023-02-19T02:31:45.378Z,515.00
2023-02-19T02:32:45.266Z,524.00
2023-02-19T02:33:45.289Z,529.00
2023-02-19T02:34:45.268Z,514.00
2023-02-19T02:35:45.267Z,511.00
2023-02-19T02:36:45.298Z,515.00
2023-02-19T02:37:45.289Z,521.00
2023-02-19T02:38:45.299Z,520.00
2023-02-19T02:39:45.272Z,526.00
2023-02-19T02:40:45.277Z,517.00
2023-02-19T02:41:45.285Z,512.00
2023-02-19T02:42:45.283Z,508.00
2023-02-19T02:43:45.284Z,519.00
2023-02-19T02:44:45.311Z,521.00
2023-02-19T02:45:45.314Z,526.00
2023-02-19T02:46:45.283Z,518.00
2023-02-19T02:47:45.324Z,518.00
2023-02-19T02:48:45.281Z,511.00
2023-02-19T02:49:45.285Z,514.00
2023-02-19T02:50:45.275Z,525.00
2023-02-19T02:51:45.277Z,515.00
2023-02-19T02:52:45.279Z,502.00
2023-02-19T02:53:45.280Z,513.00
2023-02-19T02:54:45.285Z,511.00
2023-02-19T02:55:45.273Z,515.00
2023-02-19T02:56:45.264Z,523.00
2023-02-19T02:57:45.263Z,518.00
2023-02-19T02:58:45.274Z,504.00
2023-02-19T02:59:45.271Z,507.00
2023-02-19T03:00:45.271Z,517.00
2023-02-19T03:01:45.262Z,519.00
2023-02-19T03:02:45.261Z,524.00
2023-02-19T03:03:45.263Z,509.00
2023-02-19T03:04:45.266Z,501.00
2023-02-19T03:05:45.268Z,500.00
2023-02-19T03:06:45.286Z,519.00
2023-02-19T03:07:45.280Z,525.00
2023-02-19T03:08:45.273Z,517.00
2023-02-19T03:09:45.277Z,502.00
2023-02-19T03:10:45.279Z,504.00
2023-02-19T03:11:45.282Z,517.00
2023-02-19T03:12:45.286Z,528.00
2023-02-19T03:13:45.285Z,538.00
2023-02-19T03:14:45.289Z,522.00
2023-02-19T03:15:45.286Z,511.00
2023-02-19T03:16:45.305Z,512.00
2023-02-19T03:17:45.285Z,513.00
2023-02-19T03:18:45.286Z,516.00
2023-02-19T03:19:45.285Z,526.00
2023-02-19T03:20:45.286Z,521.00
2023-02-19T03:21:45.287Z,519.00
2023-02-19T03:22:45.289Z,528.00
2023-02-19T03:23:45.293Z,534.00
2023-02-19T03:24:45.293Z,536.00
2023-02-19T03:25:45.292Z,537.00
2023-02-19T03:26:45.285Z,519.00
2023-02-19T03:27:45.272Z,519.00
2023-02-19T03:28:45.283Z,522.00
2023-02-19T03:29:45.287Z,528.00
2023-02-19T03:30:45.282Z,533.00
2023-02-19T03:31:45.332Z,529.00
2023-02-19T03:32:45.272Z,516.00
2023-02-19T03:33:45.266Z,521.00
2023-02-19T03:34:45.284Z,529.00
2023-02-19T03:35:45.262Z,534.00
2023-02-19T03:36:45.276Z,536.00
2023-02-19T03:37:45.281Z,527.00
2023-02-19T03:38:45.288Z,526.00
2023-02-19T03:39:45.308Z,525.00
2023-02-19T03:40:45.309Z,534.00
2023-02-19T03:41:45.297Z,536.00
2023-02-19T03:42:45.293Z,535.00
2023-02-19T03:43:45.300Z,527.00
2023-02-19T03:44:45.303Z,526.00
2023-02-19T03:45:45.307Z,517.00
2023-02-19T03:46:45.293Z,520.00
2023-02-19T03:47:45.292Z,536.00
2023-02-19T03:48:45.297Z,528.00
2023-02-19T03:49:47.842Z,522.00
2023-02-19T03:50:45.317Z,522.00
2023-02-19T03:51:45.329Z,522.00
2023-02-19T03:52:45.330Z,522.00
2023-02-19T03:53:45.307Z,529.00
2023-02-19T03:54:45.307Z,523.00
2023-02-19T03:55:45.319Z,510.00
2023-02-19T03:56:45.330Z,514.00
2023-02-19T03:57:45.326Z,519.00
2023-02-19T03:58:45.330Z,531.00
2023-02-19T03:59:45.314Z,527.00
2023-02-19T04:00:45.316Z,520.00
2023-02-19T04:01:45.320Z,520.00
2023-02-19T04:02:45.338Z,511.00
2023-02-19T04:03:45.325Z,511.00
2023-02-19T04:04:45.345Z,524.00
2023-02-19T04:05:45.330Z,534.00
2023-02-19T04:06:45.335Z,519.00
2023-02-19T04:07:45.332Z,510.00
2023-02-19T04:08:45.333Z,511.00
2023-02-19T04:09:45.331Z,512.00
2023-02-19T04:10:45.338Z,514.00
2023-02-19T04:11:45.337Z,521.00
2023-02-19T04:12:45.339Z,516.00
2023-02-19T04:13:45.346Z,513.00
2023-02-19T04:14:45.365Z,508.00
2023-02-19T04:15:45.349Z,521.00
2023-02-19T04:16:45.371Z,524.00
2023-02-19T04:17:45.332Z,537.00
2023-02-19T04:18:45.352Z,515.00
2023-02-19T04:19:45.342Z,515.00
2023-02-19T04:20:45.361Z,513.00
2023-02-19T04:21:45.343Z,520.00
2023-02-19T04:22:45.345Z,523.00
2023-02-19T04:23:45.357Z,530.00
2023-02-19T04:24:45.359Z,531.00
2023-02-19T04:25:45.370Z,525.00
2023-02-19T04:26:45.367Z,508.00
2023-02-19T04:27:45.366Z,517.00
2023-02-19T04:28:45.377Z,525.00
2023-02-19T04:29:45.376Z,523.00
2023-02-19T04:30:45.426Z,525.00
2023-02-19T04:31:45.475Z,506.00
2023-02-19T04:42:45.424Z,520.00
2023-02-19T04:43:45.430Z,504.00
2023-02-19T04:44:45.426Z,506.00
2023-02-19T04:45:45.429Z,513.00
2023-02-19T04:46:45.430Z,521.00
2023-02-19T04:47:45.433Z,526.00
2023-02-19T04:48:45.430Z,512.00
2023-02-19T04:49:45.432Z,506.00
2023-02-19T04:50:45.433Z,504.00
2023-02-19T04:51:45.437Z,503.00
2023-02-19T04:52:45.432Z,520.00
2023-02-19T04:53:45.437Z,510.00
2023-02-19T04:54:45.436Z,502.00
2023-02-19T04:55:45.439Z,500.00
2023-02-19T04:56:45.455Z,500.00
2023-02-19T04:57:45.452Z,517.00
2023-02-19T04:58:45.465Z,524.00
2023-02-19T04:59:45.449Z,506.00
2023-02-19T05:00:45.450Z,500.00
2023-02-19T05:01:45.460Z,509.00
2023-02-19T05:02:45.450Z,515.00
2023-02-19T05:03:45.447Z,524.00
2023-02-19T05:04:45.451Z,525.00
2023-02-19T05:05:45.456Z,527.00
2023-02-19T05:06:45.458Z,513.00
2023-02-19T05:07:45.470Z,522.00
2023-02-19T05:08:45.471Z,519.00
2023-02-19T05:09:45.478Z,533.00
2023-02-19T05:10:45.485Z,531.00
2023-02-19T05:11:45.512Z,514.00
2023-02-19T05:12:45.503Z,507.00
2023-02-19T05:13:45.544Z,510.00
2023-02-19T05:14:45.501Z,522.00
2023-02-19T05:15:45.534Z,526.00
2023-02-19T05:16:45.507Z,525.00
2023-02-19T05:17:45.512Z,512.00
2023-02-19T05:18:45.540Z,508.00
2023-02-19T05:19:45.525Z,519.00
2023-02-19T05:20:45.526Z,525.00
2023-02-19T05:21:45.518Z,543.00
2023-02-19T05:22:45.526Z,527.00
2023-02-19T05:23:45.525Z,517.00
2023-02-19T05:24:45.543Z,511.00
2023-02-19T05:25:45.537Z,523.00
2023-02-19T05:26:45.664Z,528.00
2023-02-19T05:27:45.538Z,538.00
2023-02-19T05:28:45.541Z,529.00
2023-02-19T05:29:45.538Z,519.00
2023-02-19T05:30:45.575Z,517.00
2023-02-19T05:31:45.619Z,520.00
2023-02-19T05:32:45.552Z,531.00
2023-02-19T05:33:45.550Z,533.00
2023-02-19T05:34:45.559Z,524.00
2023-02-19T05:35:45.575Z,526.00
2023-02-19T05:36:45.568Z,520.00
2023-02-19T05:37:45.575Z,529.00
2023-02-19T05:38:45.580Z,538.00
2023-02-19T05:39:45.579Z,534.00
2023-02-19T05:40:45.598Z,528.00
2023-02-19T05:41:45.601Z,514.00
2023-02-19T05:42:45.598Z,514.00
2023-02-19T05:43:45.607Z,517.00
2023-02-19T05:44:45.612Z,523.00
2023-02-19T05:45:45.623Z,530.00
2023-02-19T05:46:45.651Z,524.00
2023-02-19T05:47:45.617Z,530.00
2023-02-19T05:48:45.624Z,536.00
2023-02-19T05:49:45.627Z,540.00
2023-02-19T05:50:45.625Z,541.00
2023-02-19T05:51:45.628Z,528.00
2023-02-19T05:52:45.633Z,515.00
2023-02-19T05:53:45.648Z,527.00
2023-02-19T05:54:45.633Z,527.00
2023-02-19T05:55:45.633Z,537.00
2023-02-19T05:56:45.648Z,542.00
2023-02-19T05:57:45.651Z,531.00
2023-02-19T05:58:45.656Z,526.00
2023-02-19T05:59:45.663Z,527.00
2023-02-19T06:00:45.661Z,534.00
2023-02-19T06:01:45.664Z,547.00
2023-02-19T06:02:45.701Z,539.00
2023-02-19T06:03:45.729Z,530.00
2023-02-19T06:04:45.683Z,530.00
2023-02-19T06:05:45.686Z,534.00
2023-02-19T06:06:45.694Z,533.00
2023-02-19T06:07:45.710Z,538.00
2023-02-19T06:08:45.702Z,538.00
2023-02-19T06:09:45.712Z,522.00
2023-02-19T06:10:45.750Z,520.00
2023-02-19T06:11:45.726Z,532.00
2023-02-19T06:12:45.733Z,538.00
2023-02-19T06:13:45.741Z,541.00
2023-02-19T06:14:45.756Z,528.00
2023-02-19T06:15:45.832Z,524.00
2023-02-19T06:16:45.747Z,528.00
2023-02-19T06:17:45.755Z,532.00
2023-02-19T06:18:45.752Z,541.00
2023-02-19T06:19:45.748Z,539.00
2023-02-19T06:20:45.744Z,526.00
2023-02-19T06:21:45.742Z,525.00
2023-02-19T06:22:45.769Z,525.00
2023-02-19T06:23:45.763Z,531.00
2023-02-19T06:24:45.773Z,530.00
2023-02-19T06:25:45.774Z,528.00
2023-02-19T06:26:45.794Z,524.00
2023-02-19T06:27:45.781Z,523.00
2023-02-19T06:28:45.798Z,525.00
2023-02-19T06:29:45.795Z,525.00
2023-02-19T06:30:45.803Z,536.00
2023-02-19T06:31:45.932Z,529.00
2023-02-19T06:32:45.813Z,526.00
2023-02-19T06:33:45.830Z,517.00
2023-02-19T06:34:45.814Z,534.00
2023-02-19T06:35:45.818Z,536.00
2023-02-19T06:36:45.829Z,540.00
2023-02-19T06:37:45.826Z,527.00
2023-02-19T06:38:45.857Z,520.00
2023-02-19T06:39:45.840Z,524.00
2023-02-19T06:40:45.839Z,530.00
2023-02-19T06:41:45.842Z,535.00
2023-02-19T06:42:45.843Z,535.00
2023-02-19T06:43:45.871Z,524.00
2023-02-19T06:44:45.856Z,522.00
2023-02-19T06:45:45.869Z,525.00
2023-02-19T06:46:45.891Z,530.00
2023-02-19T06:47:45.884Z,534.00
2023-02-19T06:48:45.919Z,523.00
2023-02-19T06:49:45.899Z,523.00
2023-02-19T06:50:45.899Z,516.00
2023-02-19T06:51:45.907Z,522.00
2023-02-19T06:52:45.912Z,523.00
2023-02-19T06:53:45.920Z,538.00
2023-02-19T06:54:45.915Z,527.00
2023-02-19T06:55:45.928Z,518.00
2023-02-19T06:56:47.118Z,521.00
2023-02-19T06:57:45.933Z,528.00
2023-02-19T06:58:45.944Z,533.00
2023-02-19T06:59:45.958Z,540.00
2023-02-19T07:00:45.988Z,529.00
2023-02-19T07:01:45.966Z,531.00
2023-02-19T07:02:45.960Z,533.00
2023-02-19T07:03:46.011Z,533.00
2023-02-19T07:04:45.967Z,541.00
2023-02-19T07:05:45.989Z,542.00
2023-02-19T07:06:45.967Z,541.00
2023-02-19T07:07:45.970Z,527.00
2023-02-19T07:08:45.982Z,538.00
2023-02-19T07:09:45.982Z,537.00
2023-02-19T07:10:45.972Z,536.00
2023-02-19T07:11:45.976Z,536.00
2023-02-19T07:12:45.979Z,534.00
2023-02-19T07:13:45.994Z,526.00
2023-02-19T07:14:46.000Z,527.00
2023-02-19T07:15:46.013Z,538.00
2023-02-19T07:16:46.013Z,543.00
2023-02-19T07:17:46.013Z,543.00
2023-02-19T07:18:46.030Z,537.00
2023-02-19T07:19:46.017Z,536.00
2023-02-19T07:20:46.070Z,542.00
2023-02-19T07:21:46.036Z,547.00
2023-02-19T07:22:46.040Z,547.00
2023-02-19T07:23:46.071Z,540.00
2023-02-19T07:24:47.862Z,533.00
2023-02-19T07:25:46.078Z,539.00
2023-02-19T07:26:46.070Z,541.00
2023-02-19T07:27:46.135Z,539.00
2023-02-19T07:28:46.114Z,549.00
2023-02-19T07:29:46.135Z,533.00
2023-02-19T07:30:46.160Z,528.00
2023-02-19T07:31:46.161Z,528.00
2023-02-19T07:32:46.164Z,542.00
2023-02-19T07:33:46.156Z,548.00
2023-02-19T07:34:46.177Z,539.00
2023-02-19T07:35:46.179Z,537.00
2023-02-19T07:36:46.162Z,533.00
2023-02-19T07:37:46.166Z,537.00
2023-02-19T07:38:46.169Z,534.00
2023-02-19T07:39:46.211Z,545.00
2023-02-19T07:40:46.189Z,534.00
2023-02-19T07:41:46.191Z,526.00
2023-02-19T07:42:46.189Z,529.00
2023-02-19T07:43:46.231Z,532.00
2023-02-19T07:44:46.236Z,540.00
2023-02-19T07:45:46.282Z,531.00
2023-02-19T07:46:46.198Z,525.00
2023-02-19T07:47:46.272Z,519.00
2023-02-19T07:48:46.255Z,524.00
2023-02-19T07:49:46.222Z,526.00
2023-02-19T07:50:46.253Z,535.00
2023-02-19T07:51:46.226Z,533.00
2023-02-19T07:52:46.287Z,522.00
2023-02-19T07:53:46.245Z,527.00
2023-02-19T07:54:46.277Z,534.00
2023-02-19T07:55:46.226Z,538.00
2023-02-19T07:56:46.231Z,536.00
2023-02-19T07:57:46.222Z,534.00
2023-02-19T07:58:46.271Z,529.00
2023-02-19T07:59:46.242Z,535.00
2023-02-19T08:00:46.281Z,537.00
2023-02-19T08:01:46.260Z,547.00
2023-02-19T08:02:46.271Z,540.00
2023-02-19T08:03:47.765Z,535.00
2023-02-19T08:04:46.380Z,534.00
2023-02-19T08:05:46.375Z,540.00
2023-02-19T08:06:46.390Z,546.00
2023-02-19T08:07:46.359Z,543.00
2023-02-19T08:08:46.379Z,529.00
2023-02-19T08:09:46.341Z,536.00
2023-02-19T08:10:47.053Z,529.00
2023-02-19T08:11:46.341Z,540.00
2023-02-19T08:12:46.329Z,542.00
2023-02-19T08:13:46.317Z,538.00
2023-02-19T08:14:46.336Z,535.00
2023-02-19T08:15:46.314Z,526.00
2023-02-19T08:16:46.350Z,528.00
2023-02-19T08:17:46.318Z,540.00
2023-02-19T08:18:46.338Z,541.00
2023-02-19T08:19:46.306Z,529.00
2023-02-19T08:20:46.292Z,526.00
2023-02-19T08:21:46.292Z,530.00
2023-02-19T08:22:46.307Z,538.00
2023-02-19T08:23:46.276Z,546.00
2023-02-19T08:24:46.294Z,539.00
2023-02-19T08:25:46.262Z,537.00
2023-02-19T08:26:46.281Z,526.00
2023-02-19T08:27:46.276Z,540.00
2023-02-19T08:28:46.293Z,540.00
2023-02-19T08:29:46.263Z,538.00
2023-02-19T08:30:46.321Z,531.00
2023-02-19T08:31:46.380Z,534.00
2023-02-19T08:32:46.251Z,534.00
2023-02-19T08:33:46.248Z,540.00
2023-02-19T08:34:46.255Z,542.00
2023-02-19T08:35:46.269Z,538.00
2023-02-19T08:36:46.248Z,531.00
2023-02-19T08:37:46.234Z,535.00
2023-02-19T08:38:46.262Z,544.00
2023-02-19T08:39:46.212Z,546.00
2023-02-19T08:40:46.218Z,542.00
2023-02-19T08:41:46.263Z,544.00
2023-02-19T08:42:46.203Z,536.00
2023-02-19T08:43:46.204Z,541.00
2023-02-19T08:44:46.207Z,542.00
2023-02-19T08:45:46.192Z,546.00
2023-02-19T08:46:46.203Z,543.00
2023-02-19T08:47:46.173Z,536.00
2023-02-19T08:48:46.176Z,535.00
2023-02-19T08:49:46.177Z,536.00
2023-02-19T08:50:46.161Z,544.00
2023-02-19T08:51:46.177Z,540.00
2023-02-19T08:52:46.155Z,546.00
2023-02-19T08:53:46.206Z,547.00
2023-02-19T08:54:46.157Z,546.00
2023-02-19T08:55:46.186Z,553.00
2023-02-19T08:56:46.213Z,555.00
2023-02-19T08:57:46.148Z,549.00
2023-02-19T08:58:46.134Z,546.00
2023-02-19T08:59:46.133Z,553.00
2023-02-19T09:00:46.107Z,556.00
2023-02-19T09:01:46.148Z,554.00
2023-02-19T09:02:46.079Z,558.00
2023-02-19T09:03:46.081Z,559.00
2023-02-19T09:04:46.069Z,558.00
2023-02-19T09:05:46.077Z,562.00
2023-02-19T09:06:46.050Z,562.00
2023-02-19T09:07:46.038Z,563.00
2023-02-19T09:08:46.049Z,565.00
2023-02-19T09:09:46.013Z,561.00
2023-02-19T09:10:46.007Z,566.00
2023-02-19T09:11:47.894Z,559.00
2023-02-19T09:12:45.969Z,567.00
2023-02-19T09:13:45.971Z,566.00
2023-02-19T09:14:45.943Z,563.00
2023-02-19T09:15:45.991Z,562.00
2023-02-19T09:16:45.925Z,560.00
2023-02-19T09:17:45.914Z,562.00
2023-02-19T09:18:45.892Z,559.00
2023-02-19T09:19:45.887Z,560.00
2023-02-19T09:20:45.874Z,561.00
2023-02-19T09:21:45.868Z,563.00
2023-02-19T09:22:45.835Z,562.00
2023-02-19T09:23:45.837Z,563.00
2023-02-19T09:24:45.800Z,562.00
2023-02-19T09:25:45.785Z,563.00
2023-02-19T09:26:45.774Z,562.00
2023-02-19T09:27:45.758Z,564.00
2023-02-19T09:28:45.740Z,559.00
2023-02-19T09:29:45.715Z,560.00
2023-02-19T09:30:45.766Z,561.00
2023-02-19T09:31:45.811Z,561.00
2023-02-19T09:32:45.677Z,560.00
2023-02-19T09:33:45.664Z,567.00
2023-02-19T09:34:45.626Z,557.00
2023-02-19T09:35:45.614Z,562.00
2023-02-19T09:36:45.595Z,564.00
2023-02-19T09:37:45.581Z,563.00
2023-02-19T09:38:45.555Z,565.00
2023-02-19T09:39:45.528Z,564.00
2023-02-19T09:40:45.502Z,555.00
2023-02-19T09:41:45.520Z,560.00
2023-02-19T09:42:45.459Z,563.00
2023-02-19T09:43:45.450Z,557.00
2023-02-19T09:44:45.448Z,556.00
2023-02-19T09:45:45.404Z,552.00
2023-02-19T09:46:45.374Z,554.00
2023-02-19T09:47:45.354Z,554.00
2023-02-19T09:48:45.337Z,560.00
2023-02-19T09:49:45.310Z,561.00
2023-02-19T09:50:45.300Z,554.00
2023-02-19T09:51:45.270Z,548.00
2023-02-19T09:52:45.254Z,555.00
2023-02-19T09:53:45.226Z,556.00
2023-02-19T09:54:45.203Z,559.00
2023-02-19T09:55:45.182Z,561.00
2023-02-19T09:56:45.173Z,553.00
2023-02-19T09:57:45.138Z,554.00
2023-02-19T09:58:45.115Z,552.00
2023-02-19T09:59:45.085Z,554.00
2023-02-19T10:00:45.052Z,554.00
2023-02-19T10:01:45.066Z,552.00
2023-02-19T10:02:45.024Z,555.00
2023-02-19T10:03:44.995Z,553.00
2023-02-19T10:04:45.023Z,554.00
2023-02-19T10:05:44.964Z,558.00
2023-02-19T10:06:44.911Z,553.00
2023-02-19T10:07:44.912Z,551.00
2023-02-19T10:08:44.856Z,557.00
2023-02-19T10:09:44.829Z,554.00
2023-02-19T10:10:44.815Z,549.00
2023-02-19T10:11:44.789Z,552.00
2023-02-19T10:12:44.774Z,548.00
2023-02-19T10:13:44.739Z,555.00
2023-02-19T10:14:44.708Z,553.00
2023-02-19T10:15:44.698Z,548.00
2023-02-19T10:16:44.663Z,547.00
2023-02-19T10:17:44.644Z,546.00
2023-02-19T10:18:44.614Z,548.00
2023-02-19T10:19:44.591Z,545.00
2023-02-19T10:20:44.569Z,540.00
2023-02-19T10:21:44.541Z,541.00
2023-02-19T10:22:44.506Z,538.00
2023-02-19T10:23:44.485Z,536.00
2023-02-19T10:24:44.450Z,529.00
2023-02-19T10:25:44.436Z,534.00
2023-02-19T10:26:44.397Z,532.00
2023-02-19T10:27:44.374Z,530.00
2023-02-19T10:28:44.333Z,530.00
2023-02-19T10:29:44.303Z,523.00
2023-02-19T10:30:44.267Z,519.00
2023-02-19T10:31:44.306Z,523.00
2023-02-19T10:32:44.219Z,525.00
2023-02-19T10:33:44.178Z,522.00
2023-02-19T10:34:44.147Z,517.00
2023-02-19T10:35:44.115Z,521.00
2023-02-19T10:36:44.081Z,520.00
2023-02-19T10:37:44.063Z,522.00
2023-02-19T10:38:44.032Z,524.00
2023-02-19T10:39:44.005Z,527.00
2023-02-19T10:40:43.979Z,521.00
2023-02-19T10:41:44.459Z,515.00
2023-02-19T10:42:43.918Z,524.00
2023-02-19T10:43:43.890Z,517.00
2023-02-19T10:44:43.850Z,515.00
2023-02-19T10:45:43.821Z,525.00
2023-02-19T10:46:43.824Z,518.00
2023-02-19T10:47:43.768Z,517.00
2023-02-19T10:48:43.719Z,516.00
2023-02-19T10:49:43.705Z,512.00
2023-02-19T10:50:43.660Z,513.00
2023-02-19T10:51:43.626Z,504.00
2023-02-19T10:52:43.611Z,504.00
2023-02-19T10:53:43.586Z,510.00
2023-02-19T10:54:43.548Z,507.00
2023-02-19T10:55:43.562Z,504.00
2023-02-19T10:56:43.492Z,509.00
2023-02-19T10:57:43.463Z,507.00
2023-02-19T10:58:43.437Z,512.00
2023-02-19T10:59:43.405Z,512.00
2023-02-19T11:00:43.385Z,509.00
2023-02-19T11:01:43.423Z,513.00
2023-02-19T11:02:43.322Z,511.00
2023-02-19T11:03:43.299Z,503.00
2023-02-19T11:04:43.324Z,500.00
2023-02-19T11:05:43.232Z,507.00
2023-02-19T11:06:43.199Z,510.00
2023-02-19T11:07:43.174Z,513.00
2023-02-19T11:08:43.138Z,512.00
2023-02-19T11:09:43.110Z,511.00
2023-02-19T11:10:43.076Z,503.00
2023-02-19T11:11:43.047Z,507.00
2023-02-19T11:12:43.008Z,504.00
2023-02-19T11:13:42.976Z,512.00
2023-02-19T11:14:42.939Z,514.00
2023-02-19T11:15:42.911Z,507.00
2023-02-19T11:16:42.904Z,507.00
2023-02-19T11:17:42.842Z,505.00
2023-02-19T11:18:42.815Z,500.00
2023-02-19T11:19:42.787Z,499.00
2023-02-19T11:20:42.750Z,511.00
2023-02-19T11:21:42.716Z,516.00
2023-02-19T11:22:42.695Z,517.00
2023-02-19T11:23:42.652Z,514.00
2023-02-19T11:24:42.614Z,512.00
2023-02-19T11:25:42.578Z,505.00
2023-02-19T11:26:42.536Z,504.00
2023-02-19T11:27:42.512Z,504.00
2023-02-19T11:28:42.471Z,510.00
2023-02-19T11:29:42.431Z,504.00
2023-02-19T11:30:42.469Z,503.00
2023-02-19T11:31:42.402Z,508.00
2023-02-19T11:32:42.327Z,502.00
2023-02-19T11:33:42.280Z,504.00
2023-02-19T11:34:42.254Z,507.00
2023-02-19T11:35:42.202Z,501.00
2023-02-19T11:36:42.177Z,504.00
2023-02-19T11:37:42.138Z,504.00
2023-02-19T11:38:42.111Z,505.00
2023-02-19T11:39:42.084Z,507.00
2023-02-19T11:40:42.057Z,505.00
2023-02-19T11:41:42.010Z,504.00
2023-02-19T11:42:41.979Z,504.00
2023-02-19T11:43:41.950Z,505.00
2023-02-19T11:44:41.919Z,508.00
2023-02-19T11:45:41.887Z,502.00
2023-02-19T11:46:41.883Z,499.00
2023-02-19T11:47:41.813Z,508.00
2023-02-19T11:48:41.791Z,506.00
2023-02-19T11:49:41.757Z,503.00
2023-02-19T11:50:41.721Z,502.00
2023-02-19T11:51:41.687Z,503.00
2023-02-19T11:52:41.654Z,505.00
2023-02-19T11:53:41.618Z,501.00
2023-02-19T11:54:41.604Z,515.00
2023-02-19T11:55:41.564Z,511.00
2023-02-19T11:56:41.514Z,510.00
2023-02-19T11:57:41.477Z,510.00
2023-02-19T11:58:41.441Z,502.00
2023-02-19T11:59:41.409Z,500.00
2023-02-19T12:00:41.378Z,505.00
2023-02-19T12:01:41.398Z,507.00
2023-02-19T12:02:41.298Z,501.00
2023-02-19T12:03:41.266Z,512.00
2023-02-19T12:04:41.237Z,504.00
2023-02-19T12:06:41.161Z,509.00
2023-02-19T12:21:40.684Z,522.00
2023-02-19T12:34:40.271Z,528.00
2023-02-19T12:46:39.957Z,564.00
2023-02-19T12:54:39.738Z,561.00
2023-02-19T13:09:39.386Z,571.00
2023-02-19T13:15:39.715Z,557.00
2023-02-19T13:58:38.320Z,518.00
2023-02-19T13:59:38.311Z,523.00
2023-02-19T14:00:38.274Z,521.00
2023-02-19T14:01:38.299Z,530.00
2023-02-19T14:02:38.299Z,516.00
2023-02-19T14:03:38.201Z,522.00
2023-02-19T14:04:38.173Z,523.00
2023-02-19T14:05:38.151Z,523.00
2023-02-19T14:06:38.144Z,526.00
2023-02-19T14:07:38.107Z,520.00
2023-02-19T14:08:38.084Z,531.00
2023-02-19T14:09:38.064Z,514.00
2023-02-19T14:10:38.047Z,518.00
2023-02-19T14:11:38.021Z,521.00
2023-02-19T14:12:38.009Z,508.00
2023-02-19T14:13:37.978Z,513.00
2023-02-19T14:14:37.965Z,521.00
2023-02-19T14:15:37.941Z,519.00
2023-02-19T14:16:37.942Z,503.00
2023-02-19T14:17:37.889Z,505.00
2023-02-19T14:18:37.876Z,506.00
2023-02-19T14:19:37.844Z,534.00
2023-02-19T14:20:37.817Z,519.00
2023-02-19T14:21:37.801Z,535.00
2023-02-19T14:22:37.769Z,547.00
2023-02-19T14:23:37.740Z,538.00
2023-02-19T14:24:37.720Z,529.00